sensor_id;sensor_type;location;lat;lon;timestamp;P1;durP1;ratioP1;P2;durP2;ratioP2
12780;SDS011;6454;43.304;24.344;2022-08-03T00:00:21;2.30;;;2.10;;
12780;SDS011;6454;43.304;24.344;2022-08-03T00:02:51;2.35;;;2.17;;
12780;SDS011;6454;43.304;24.344;2022-08-03T00:05:18;4.25;;;2.30;;
12780;SDS011;6454;43.304;24.344;2022-08-03T00:07:45;3.17;;;2.10;;
12780;SDS011;6454;43.304;24.344;2022-08-03T00:10:12;2.40;;;2.20;;
12780;SDS011;6454;43.304;24.344;2022-08-03T00:12:39;3.38;;;2.25;;
12780;SDS011;6454;43.304;24.344;2022-08-03T00:15:06;3.45;;;2.00;;
12780;SDS011;6454;43.304;24.344;2022-08-03T00:17:34;2.20;;;1.90;;
12780;SDS011;6454;43.304;24.344;2022-08-03T00:20:02;2.05;;;1.90;;
12780;SDS011;6454;43.304;24.344;2022-08-03T00:22:30;2.55;;;2.35;;
12780;SDS011;6454;43.304;24.344;2022-08-03T00:24:59;2.42;;;2.22;;
12780;SDS011;6454;43.304;24.344;2022-08-03T00:27:26;2.20;;;2.00;;
12780;SDS011;6454;43.304;24.344;2022-08-03T00:29:53;2.28;;;2.08;;
12780;SDS011;6454;43.304;24.344;2022-08-03T00:32:20;3.30;;;2.40;;
12780;SDS011;6454;43.304;24.344;2022-08-03T00:34:47;2.10;;;1.90;;
12780;SDS011;6454;43.304;24.344;2022-08-03T00:37:15;2.97;;;2.08;;
12780;SDS011;6454;43.304;24.344;2022-08-03T00:39:42;2.08;;;1.73;;
12780;SDS011;6454;43.304;24.344;2022-08-03T00:42:11;2.50;;;2.30;;
12780;SDS011;6454;43.304;24.344;2022-08-03T00:44:38;3.08;;;2.03;;
12780;SDS011;6454;43.304;24.344;2022-08-03T00:47:06;1.88;;;1.77;;
12780;SDS011;6454;43.304;24.344;2022-08-03T00:49:34;2.53;;;2.30;;
12780;SDS011;6454;43.304;24.344;2022-08-03T00:52:01;2.45;;;2.13;;
12780;SDS011;6454;43.304;24.344;2022-08-03T00:54:30;3.05;;;2.22;;
12780;SDS011;6454;43.304;24.344;2022-08-03T00:56:58;2.03;;;1.83;;
12780;SDS011;6454;43.304;24.344;2022-08-03T00:59:26;2.38;;;2.17;;
12780;SDS011;6454;43.304;24.344;2022-08-03T01:01:53;2.55;;;2.20;;
12780;SDS011;6454;43.304;24.344;2022-08-03T01:04:20;3.65;;;2.10;;
12780;SDS011;6454;43.304;24.344;2022-08-03T01:06:48;2.67;;;2.15;;
12780;SDS011;6454;43.304;24.344;2022-08-03T01:09:34;2.53;;;2.10;;
12780;SDS011;6454;43.304;24.344;2022-08-03T01:12:12;2.42;;;2.20;;
12780;SDS011;6454;43.304;24.344;2022-08-03T01:14:45;2.63;;;2.38;;
12780;SDS011;6454;43.304;24.344;2022-08-03T01:17:18;2.38;;;2.17;;
12780;SDS011;6454;43.304;24.344;2022-08-03T01:19:53;2.45;;;2.25;;
12780;SDS011;6454;43.304;24.344;2022-08-03T01:22:36;1.95;;;1.85;;
12780;SDS011;6454;43.304;24.344;2022-08-03T01:25:17;3.28;;;2.00;;
12780;SDS011;6454;43.304;24.344;2022-08-03T01:27:57;2.10;;;1.95;;
12780;SDS011;6454;43.304;24.344;2022-08-03T01:30:38;2.30;;;2.10;;
12780;SDS011;6454;43.304;24.344;2022-08-03T01:33:10;2.95;;;2.10;;
12780;SDS011;6454;43.304;24.344;2022-08-03T01:35:42;2.40;;;2.20;;
12780;SDS011;6454;43.304;24.344;2022-08-03T01:38:12;3.00;;;2.20;;
12780;SDS011;6454;43.304;24.344;2022-08-03T01:40:44;2.40;;;2.20;;
12780;SDS011;6454;43.304;24.344;2022-08-03T01:43:14;4.38;;;2.42;;
12780;SDS011;6454;43.304;24.344;2022-08-03T01:45:44;3.78;;;2.25;;
12780;SDS011;6454;43.304;24.344;2022-08-03T01:48:12;2.53;;;2.30;;
12780;SDS011;6454;43.304;24.344;2022-08-03T01:50:42;1.98;;;1.88;;
12780;SDS011;6454;43.304;24.344;2022-08-03T01:53:12;2.28;;;2.03;;
12780;SDS011;6454;43.304;24.344;2022-08-03T01:55:40;2.33;;;2.13;;
12780;SDS011;6454;43.304;24.344;2022-08-03T01:58:09;2.30;;;2.10;;
12780;SDS011;6454;43.304;24.344;2022-08-03T02:00:39;2.20;;;2.00;;
12780;SDS011;6454;43.304;24.344;2022-08-03T02:03:08;4.85;;;2.20;;
12780;SDS011;6454;43.304;24.344;2022-08-03T02:05:37;2.35;;;2.15;;
12780;SDS011;6454;43.304;24.344;2022-08-03T02:08:05;2.17;;;1.98;;
12780;SDS011;6454;43.304;24.344;2022-08-03T02:10:36;2.83;;;2.00;;
12780;SDS011;6454;43.304;24.344;2022-08-03T02:13:05;2.67;;;2.20;;
12780;SDS011;6454;43.304;24.344;2022-08-03T02:15:33;2.67;;;1.92;;
12780;SDS011;6454;43.304;24.344;2022-08-03T02:18:02;2.25;;;1.85;;
12780;SDS011;6454;43.304;24.344;2022-08-03T02:20:34;2.00;;;1.90;;
12780;SDS011;6454;43.304;24.344;2022-08-03T02:23:03;2.80;;;2.00;;
12780;SDS011;6454;43.304;24.344;2022-08-03T02:25:31;1.80;;;1.70;;
12780;SDS011;6454;43.304;24.344;2022-08-03T02:28:00;3.45;;;1.88;;
12780;SDS011;6454;43.304;24.344;2022-08-03T02:30:34;2.30;;;2.10;;
12780;SDS011;6454;43.304;24.344;2022-08-03T02:33:03;3.03;;;2.08;;
12780;SDS011;6454;43.304;24.344;2022-08-03T02:35:34;3.60;;;2.15;;
12780;SDS011;6454;43.304;24.344;2022-08-03T02:38:02;2.70;;;2.10;;
12780;SDS011;6454;43.304;24.344;2022-08-03T02:40:33;2.20;;;2.00;;
12780;SDS011;6454;43.304;24.344;2022-08-03T02:43:02;3.80;;;1.92;;
12780;SDS011;6454;43.304;24.344;2022-08-03T02:45:34;1.85;;;1.75;;
12780;SDS011;6454;43.304;24.344;2022-08-03T02:48:07;4.35;;;2.05;;
12780;SDS011;6454;43.304;24.344;2022-08-03T02:50:38;2.08;;;1.95;;
12780;SDS011;6454;43.304;24.344;2022-08-03T02:53:06;2.45;;;2.25;;
12780;SDS011;6454;43.304;24.344;2022-08-03T02:55:35;2.17;;;1.95;;
12780;SDS011;6454;43.304;24.344;2022-08-03T02:58:04;2.22;;;2.05;;
12780;SDS011;6454;43.304;24.344;2022-08-03T03:00:32;2.40;;;2.20;;
12780;SDS011;6454;43.304;24.344;2022-08-03T03:03:01;2.25;;;2.03;;
12780;SDS011;6454;43.304;24.344;2022-08-03T03:05:30;1.70;;;1.60;;
12780;SDS011;6454;43.304;24.344;2022-08-03T03:07:59;3.03;;;2.05;;
12780;SDS011;6454;43.304;24.344;2022-08-03T03:10:27;2.30;;;2.10;;
12780;SDS011;6454;43.304;24.344;2022-08-03T03:12:55;2.40;;;2.20;;
12780;SDS011;6454;43.304;24.344;2022-08-03T03:15:23;3.92;;;2.30;;
12780;SDS011;6454;43.304;24.344;2022-08-03T03:17:52;3.25;;;2.22;;
12780;SDS011;6454;43.304;24.344;2022-08-03T03:20:19;2.47;;;2.10;;
12780;SDS011;6454;43.304;24.344;2022-08-03T03:22:47;4.00;;;1.80;;
12780;SDS011;6454;43.304;24.344;2022-08-03T03:25:17;2.55;;;2.05;;
12780;SDS011;6454;43.304;24.344;2022-08-03T03:27:46;2.88;;;2.00;;
12780;SDS011;6454;43.304;24.344;2022-08-03T03:30:13;4.43;;;2.33;;
12780;SDS011;6454;43.304;24.344;2022-08-03T03:32:40;2.33;;;2.08;;
12780;SDS011;6454;43.304;24.344;2022-08-03T03:35:07;2.45;;;1.95;;
12780;SDS011;6454;43.304;24.344;2022-08-03T03:37:35;4.10;;;2.30;;
12780;SDS011;6454;43.304;24.344;2022-08-03T03:40:02;2.10;;;1.90;;
12780;SDS011;6454;43.304;24.344;2022-08-03T03:42:31;2.72;;;2.08;;
12780;SDS011;6454;43.304;24.344;2022-08-03T03:44:58;2.10;;;1.90;;
12780;SDS011;6454;43.304;24.344;2022-08-03T03:47:29;2.20;;;2.00;;
12780;SDS011;6454;43.304;24.344;2022-08-03T03:49:56;2.22;;;2.03;;
12780;SDS011;6454;43.304;24.344;2022-08-03T03:52:23;3.35;;;2.17;;
12780;SDS011;6454;43.304;24.344;2022-08-03T03:54:50;4.63;;;2.45;;
12780;SDS011;6454;43.304;24.344;2022-08-03T03:57:17;2.35;;;2.10;;
12780;SDS011;6454;43.304;24.344;2022-08-03T03:59:45;2.63;;;2.42;;
12780;SDS011;6454;43.304;24.344;2022-08-03T04:02:12;2.38;;;2.03;;
12780;SDS011;6454;43.304;24.344;2022-08-03T04:04:39;4.10;;;2.13;;
12780;SDS011;6454;43.304;24.344;2022-08-03T04:07:24;2.85;;;1.98;;
12780;SDS011;6454;43.304;24.344;2022-08-03T04:10:10;2.60;;;2.10;;
12780;SDS011;6454;43.304;24.344;2022-08-03T04:12:59;6.85;;;2.55;;
12780;SDS011;6454;43.304;24.344;2022-08-03T04:15:28;2.38;;;2.17;;
12780;SDS011;6454;43.304;24.344;2022-08-03T04:17:58;2.70;;;2.15;;
12780;SDS011;6454;43.304;24.344;2022-08-03T04:20:27;3.00;;;2.00;;
12780;SDS011;6454;43.304;24.344;2022-08-03T04:22:57;2.45;;;2.25;;
12780;SDS011;6454;43.304;24.344;2022-08-03T04:25:26;2.40;;;2.17;;
12780;SDS011;6454;43.304;24.344;2022-08-03T04:27:55;2.22;;;2.03;;
12780;SDS011;6454;43.304;24.344;2022-08-03T04:30:26;3.88;;;2.10;;
12780;SDS011;6454;43.304;24.344;2022-08-03T04:32:55;2.60;;;2.17;;
12780;SDS011;6454;43.304;24.344;2022-08-03T04:35:23;2.97;;;2.50;;
12780;SDS011;6454;43.304;24.344;2022-08-03T04:37:52;6.78;;;2.42;;
12780;SDS011;6454;43.304;24.344;2022-08-03T04:40:24;2.75;;;2.10;;
12780;SDS011;6454;43.304;24.344;2022-08-03T04:42:55;2.78;;;2.38;;
12780;SDS011;6454;43.304;24.344;2022-08-03T04:45:24;2.35;;;2.13;;
12780;SDS011;6454;43.304;24.344;2022-08-03T04:47:54;3.67;;;2.30;;
12780;SDS011;6454;43.304;24.344;2022-08-03T04:50:22;2.00;;;1.90;;
12780;SDS011;6454;43.304;24.344;2022-08-03T04:52:52;2.30;;;2.10;;
12780;SDS011;6454;43.304;24.344;2022-08-03T04:55:24;2.42;;;2.20;;
12780;SDS011;6454;43.304;24.344;2022-08-03T04:57:52;2.20;;;2.00;;
12780;SDS011;6454;43.304;24.344;2022-08-03T05:00:19;2.03;;;1.83;;
12780;SDS011;6454;43.304;24.344;2022-08-03T05:02:46;3.22;;;1.98;;
12780;SDS011;6454;43.304;24.344;2022-08-03T05:05:15;2.20;;;1.92;;
12780;SDS011;6454;43.304;24.344;2022-08-03T05:07:42;2.10;;;1.90;;
12780;SDS011;6454;43.304;24.344;2022-08-03T05:10:10;3.35;;;2.10;;
12780;SDS011;6454;43.304;24.344;2022-08-03T05:12:38;2.97;;;2.10;;
12780;SDS011;6454;43.304;24.344;2022-08-03T05:15:05;2.10;;;1.90;;
12780;SDS011;6454;43.304;24.344;2022-08-03T05:17:33;1.98;;;1.80;;
12780;SDS011;6454;43.304;24.344;2022-08-03T05:20:01;2.13;;;1.92;;
12780;SDS011;6454;43.304;24.344;2022-08-03T05:22:30;1.92;;;1.83;;
12780;SDS011;6454;43.304;24.344;2022-08-03T05:24:57;2.55;;;2.13;;
12780;SDS011;6454;43.304;24.344;2022-08-03T05:27:25;2.20;;;2.00;;
12780;SDS011;6454;43.304;24.344;2022-08-03T05:29:52;2.63;;;1.67;;
12780;SDS011;6454;43.304;24.344;2022-08-03T05:32:19;1.90;;;1.80;;
12780;SDS011;6454;43.304;24.344;2022-08-03T05:34:46;2.35;;;1.92;;
12780;SDS011;6454;43.304;24.344;2022-08-03T05:37:13;2.22;;;2.00;;
12780;SDS011;6454;43.304;24.344;2022-08-03T05:39:42;2.25;;;1.90;;
12780;SDS011;6454;43.304;24.344;2022-08-03T05:42:09;1.83;;;1.73;;
12780;SDS011;6454;43.304;24.344;2022-08-03T05:44:35;2.22;;;2.05;;
12780;SDS011;6454;43.304;24.344;2022-08-03T05:47:03;2.65;;;1.95;;
12780;SDS011;6454;43.304;24.344;2022-08-03T05:49:30;2.22;;;2.03;;
12780;SDS011;6454;43.304;24.344;2022-08-03T05:51:57;2.15;;;1.95;;
12780;SDS011;6454;43.304;24.344;2022-08-03T05:54:24;2.53;;;1.85;;
12780;SDS011;6454;43.304;24.344;2022-08-03T05:56:52;2.92;;;2.10;;
12780;SDS011;6454;43.304;24.344;2022-08-03T05:59:19;2.22;;;1.83;;
12780;SDS011;6454;43.304;24.344;2022-08-03T06:01:46;2.85;;;2.15;;
12780;SDS011;6454;43.304;24.344;2022-08-03T06:17:46;4.35;;;3.60;;
12780;SDS011;6454;43.304;24.344;2022-08-03T06:20:14;3.78;;;3.03;;
12780;SDS011;6454;43.304;24.344;2022-08-03T06:35:06;3.60;;;3.10;;
12780;SDS011;6454;43.304;24.344;2022-08-03T06:37:40;4.22;;;3.05;;
12780;SDS011;6454;43.304;24.344;2022-08-03T06:40:09;2.88;;;2.60;;
12780;SDS011;6454;43.304;24.344;2022-08-03T06:42:37;3.53;;;3.10;;
12780;SDS011;6454;43.304;24.344;2022-08-03T06:45:04;3.15;;;2.90;;
12780;SDS011;6454;43.304;24.344;2022-08-03T06:47:33;3.15;;;2.60;;
12780;SDS011;6454;43.304;24.344;2022-08-03T06:50:00;3.75;;;2.72;;
12780;SDS011;6454;43.304;24.344;2022-08-03T06:52:28;3.80;;;3.00;;
12780;SDS011;6454;43.304;24.344;2022-08-03T06:54:55;3.85;;;3.08;;
12780;SDS011;6454;43.304;24.344;2022-08-03T06:57:22;3.55;;;2.83;;
12780;SDS011;6454;43.304;24.344;2022-08-03T06:59:49;4.38;;;2.88;;
12780;SDS011;6454;43.304;24.344;2022-08-03T07:02:16;3.13;;;2.72;;
12780;SDS011;6454;43.304;24.344;2022-08-03T07:04:44;3.30;;;3.00;;
12780;SDS011;6454;43.304;24.344;2022-08-03T07:07:11;3.75;;;3.45;;
12780;SDS011;6454;43.304;24.344;2022-08-03T07:09:39;3.15;;;2.85;;
12780;SDS011;6454;43.304;24.344;2022-08-03T07:12:06;4.88;;;3.70;;
12780;SDS011;6454;43.304;24.344;2022-08-03T07:14:33;5.18;;;3.40;;
12780;SDS011;6454;43.304;24.344;2022-08-03T07:17:00;5.75;;;3.60;;
12780;SDS011;6454;43.304;24.344;2022-08-03T07:19:27;3.53;;;3.22;;
12780;SDS011;6454;43.304;24.344;2022-08-03T07:21:54;6.60;;;3.80;;
12780;SDS011;6454;43.304;24.344;2022-08-03T07:24:21;4.28;;;3.55;;
12780;SDS011;6454;43.304;24.344;2022-08-03T07:26:49;4.00;;;3.33;;
12780;SDS011;6454;43.304;24.344;2022-08-03T07:29:16;4.95;;;3.45;;
12780;SDS011;6454;43.304;24.344;2022-08-03T07:31:43;6.05;;;3.75;;
12780;SDS011;6454;43.304;24.344;2022-08-03T07:34:10;5.55;;;3.80;;
12780;SDS011;6454;43.304;24.344;2022-08-03T07:36:37;4.82;;;3.80;;
12780;SDS011;6454;43.304;24.344;2022-08-03T07:39:04;3.75;;;3.15;;
12780;SDS011;6454;43.304;24.344;2022-08-03T07:41:32;4.80;;;3.28;;
12780;SDS011;6454;43.304;24.344;2022-08-03T07:44:00;3.20;;;3.00;;
12780;SDS011;6454;43.304;24.344;2022-08-03T07:46:27;3.65;;;3.30;;
12780;SDS011;6454;43.304;24.344;2022-08-03T07:48:54;3.92;;;3.05;;
12780;SDS011;6454;43.304;24.344;2022-08-03T07:51:21;2.80;;;2.60;;
12780;SDS011;6454;43.304;24.344;2022-08-03T07:53:48;2.70;;;2.50;;
12780;SDS011;6454;43.304;24.344;2022-08-03T07:56:15;3.95;;;2.65;;
12780;SDS011;6454;43.304;24.344;2022-08-03T07:58:42;2.70;;;2.40;;
12780;SDS011;6454;43.304;24.344;2022-08-03T08:01:10;2.85;;;2.60;;
12780;SDS011;6454;43.304;24.344;2022-08-03T08:03:37;2.83;;;2.60;;
12780;SDS011;6454;43.304;24.344;2022-08-03T08:06:05;3.28;;;2.58;;
12780;SDS011;6454;43.304;24.344;2022-08-03T08:08:32;2.47;;;2.28;;
12780;SDS011;6454;43.304;24.344;2022-08-03T08:10:58;3.60;;;2.33;;
12780;SDS011;6454;43.304;24.344;2022-08-03T08:13:25;5.07;;;2.60;;
12780;SDS011;6454;43.304;24.344;2022-08-03T08:15:52;2.83;;;2.50;;
12780;SDS011;6454;43.304;24.344;2022-08-03T08:18:20;2.78;;;2.55;;
12780;SDS011;6454;43.304;24.344;2022-08-03T08:20:48;5.15;;;2.65;;
12780;SDS011;6454;43.304;24.344;2022-08-03T08:23:16;5.03;;;3.33;;
12780;SDS011;6454;43.304;24.344;2022-08-03T08:25:47;5.72;;;3.40;;
12780;SDS011;6454;43.304;24.344;2022-08-03T08:28:15;3.53;;;3.22;;
12780;SDS011;6454;43.304;24.344;2022-08-03T08:30:43;2.97;;;2.67;;
12780;SDS011;6454;43.304;24.344;2022-08-03T08:33:10;3.35;;;2.80;;
12780;SDS011;6454;43.304;24.344;2022-08-03T08:35:38;3.28;;;2.47;;
12780;SDS011;6454;43.304;24.344;2022-08-03T08:38:05;3.20;;;2.90;;
12780;SDS011;6454;43.304;24.344;2022-08-03T08:40:32;2.80;;;2.60;;
12780;SDS011;6454;43.304;24.344;2022-08-03T08:43:00;3.25;;;2.80;;
12780;SDS011;6454;43.304;24.344;2022-08-03T08:45:27;6.40;;;2.72;;
12780;SDS011;6454;43.304;24.344;2022-08-03T08:47:54;3.50;;;2.63;;
12780;SDS011;6454;43.304;24.344;2022-08-03T08:50:25;2.72;;;2.53;;
12780;SDS011;6454;43.304;24.344;2022-08-03T08:52:53;2.38;;;2.17;;
12780;SDS011;6454;43.304;24.344;2022-08-03T08:55:22;3.42;;;2.10;;
12780;SDS011;6454;43.304;24.344;2022-08-03T08:57:49;2.35;;;2.10;;
12780;SDS011;6454;43.304;24.344;2022-08-03T09:00:23;3.83;;;2.08;;
12780;SDS011;6454;43.304;24.344;2022-08-03T09:02:50;2.85;;;2.20;;
12780;SDS011;6454;43.304;24.344;2022-08-03T09:05:17;3.15;;;2.20;;
12780;SDS011;6454;43.304;24.344;2022-08-03T09:07:46;2.83;;;2.25;;
12780;SDS011;6454;43.304;24.344;2022-08-03T09:10:15;2.58;;;2.03;;
12780;SDS011;6454;43.304;24.344;2022-08-03T09:12:46;2.05;;;1.95;;
12780;SDS011;6454;43.304;24.344;2022-08-03T09:15:18;3.00;;;2.10;;
12780;SDS011;6454;43.304;24.344;2022-08-03T09:17:47;2.15;;;1.88;;
12780;SDS011;6454;43.304;24.344;2022-08-03T09:20:17;2.30;;;1.80;;
12780;SDS011;6454;43.304;24.344;2022-08-03T09:22:52;3.20;;;1.63;;
12780;SDS011;6454;43.304;24.344;2022-08-03T09:25:32;2.15;;;1.95;;
12780;SDS011;6454;43.304;24.344;2022-08-03T09:28:04;2.53;;;2.05;;
12780;SDS011;6454;43.304;24.344;2022-08-03T09:30:33;2.28;;;2.00;;
12780;SDS011;6454;43.304;24.344;2022-08-03T09:33:00;2.10;;;1.80;;
12780;SDS011;6454;43.304;24.344;2022-08-03T09:35:28;2.17;;;1.95;;
12780;SDS011;6454;43.304;24.344;2022-08-03T09:38:08;2.65;;;1.75;;
12780;SDS011;6454;43.304;24.344;2022-08-03T09:40:38;2.92;;;1.85;;
12780;SDS011;6454;43.304;24.344;2022-08-03T09:43:05;1.98;;;1.88;;
12780;SDS011;6454;43.304;24.344;2022-08-03T09:45:33;4.07;;;2.00;;
12780;SDS011;6454;43.304;24.344;2022-08-03T09:48:19;2.20;;;2.00;;
12780;SDS011;6454;43.304;24.344;2022-08-03T09:50:47;2.22;;;2.03;;
12780;SDS011;6454;43.304;24.344;2022-08-03T09:53:16;3.25;;;1.70;;
12780;SDS011;6454;43.304;24.344;2022-08-03T09:55:50;3.78;;;2.00;;
12780;SDS011;6454;43.304;24.344;2022-08-03T09:58:19;2.10;;;1.90;;
12780;SDS011;6454;43.304;24.344;2022-08-03T10:00:54;2.20;;;2.00;;
12780;SDS011;6454;43.304;24.344;2022-08-03T10:03:23;3.38;;;2.00;;
12780;SDS011;6454;43.304;24.344;2022-08-03T10:05:51;2.70;;;1.83;;
12780;SDS011;6454;43.304;24.344;2022-08-03T10:08:19;3.55;;;1.77;;
12780;SDS011;6454;43.304;24.344;2022-08-03T10:10:48;3.95;;;1.90;;
12780;SDS011;6454;43.304;24.344;2022-08-03T10:13:19;3.42;;;1.88;;
12780;SDS011;6454;43.304;24.344;2022-08-03T10:15:47;2.03;;;1.90;;
12780;SDS011;6454;43.304;24.344;2022-08-03T10:18:15;2.70;;;1.80;;
12780;SDS011;6454;43.304;24.344;2022-08-03T10:20:42;2.55;;;2.05;;
12780;SDS011;6454;43.304;24.344;2022-08-03T10:23:11;2.22;;;2.03;;
12780;SDS011;6454;43.304;24.344;2022-08-03T10:25:42;2.13;;;1.92;;
12780;SDS011;6454;43.304;24.344;2022-08-03T10:28:12;2.40;;;1.77;;
12780;SDS011;6454;43.304;24.344;2022-08-03T10:30:46;2.78;;;1.67;;
12780;SDS011;6454;43.304;24.344;2022-08-03T10:33:16;2.17;;;1.98;;
12780;SDS011;6454;43.304;24.344;2022-08-03T10:35:46;1.80;;;1.70;;
12780;SDS011;6454;43.304;24.344;2022-08-03T10:38:17;2.03;;;1.83;;
12780;SDS011;6454;43.304;24.344;2022-08-03T10:40:46;3.15;;;2.08;;
12780;SDS011;6454;43.304;24.344;2022-08-03T10:43:19;4.90;;;2.20;;
12780;SDS011;6454;43.304;24.344;2022-08-03T10:45:49;3.90;;;1.90;;
12780;SDS011;6454;43.304;24.344;2022-08-03T10:48:17;3.15;;;1.73;;
12780;SDS011;6454;43.304;24.344;2022-08-03T10:50:44;1.80;;;1.65;;
12780;SDS011;6454;43.304;24.344;2022-08-03T10:53:13;5.40;;;2.10;;
12780;SDS011;6454;43.304;24.344;2022-08-03T10:55:41;2.03;;;1.90;;
12780;SDS011;6454;43.304;24.344;2022-08-03T10:58:45;2.33;;;1.90;;
12780;SDS011;6454;43.304;24.344;2022-08-03T11:01:15;3.10;;;2.08;;
12780;SDS011;6454;43.304;24.344;2022-08-03T11:06:42;3.58;;;2.28;;
12780;SDS011;6454;43.304;24.344;2022-08-03T11:09:14;4.82;;;2.20;;
12780;SDS011;6454;43.304;24.344;2022-08-03T11:11:43;2.10;;;1.77;;
12780;SDS011;6454;43.304;24.344;2022-08-03T11:14:12;2.80;;;1.88;;
12780;SDS011;6454;43.304;24.344;2022-08-03T11:16:42;3.05;;;2.03;;
12780;SDS011;6454;43.304;24.344;2022-08-03T11:19:12;2.08;;;1.98;;
12780;SDS011;6454;43.304;24.344;2022-08-03T11:21:53;2.65;;;1.70;;
12780;SDS011;6454;43.304;24.344;2022-08-03T11:27:26;2.10;;;1.88;;
12780;SDS011;6454;43.304;24.344;2022-08-03T11:29:55;1.70;;;1.60;;
12780;SDS011;6454;43.304;24.344;2022-08-03T11:35:23;2.63;;;1.50;;
12780;SDS011;6454;43.304;24.344;2022-08-03T11:38:01;2.00;;;1.65;;
12780;SDS011;6454;43.304;24.344;2022-08-03T11:40:36;1.67;;;1.42;;
12780;SDS011;6454;43.304;24.344;2022-08-03T11:43:05;2.17;;;1.80;;
12780;SDS011;6454;43.304;24.344;2022-08-03T11:45:33;1.70;;;1.60;;
12780;SDS011;6454;43.304;24.344;2022-08-03T11:48:12;1.90;;;1.70;;
12780;SDS011;6454;43.304;24.344;2022-08-03T11:50:40;3.45;;;1.80;;
12780;SDS011;6454;43.304;24.344;2022-08-03T11:53:12;2.17;;;1.73;;
12780;SDS011;6454;43.304;24.344;2022-08-03T11:55:41;2.53;;;1.70;;
12780;SDS011;6454;43.304;24.344;2022-08-03T11:58:14;1.92;;;1.67;;
12780;SDS011;6454;43.304;24.344;2022-08-03T12:00:42;2.42;;;1.60;;
12780;SDS011;6454;43.304;24.344;2022-08-03T12:03:11;2.25;;;1.70;;
12780;SDS011;6454;43.304;24.344;2022-08-03T12:05:47;1.90;;;1.70;;
12780;SDS011;6454;43.304;24.344;2022-08-03T12:08:17;2.05;;;1.60;;
12780;SDS011;6454;43.304;24.344;2022-08-03T12:10:55;2.00;;;1.75;;
12780;SDS011;6454;43.304;24.344;2022-08-03T12:13:24;1.83;;;1.73;;
12780;SDS011;6454;43.304;24.344;2022-08-03T12:15:52;1.98;;;1.70;;
12780;SDS011;6454;43.304;24.344;2022-08-03T12:18:21;2.00;;;1.67;;
12780;SDS011;6454;43.304;24.344;2022-08-03T12:20:49;3.33;;;1.92;;
12780;SDS011;6454;43.304;24.344;2022-08-03T12:23:18;2.85;;;1.98;;
12780;SDS011;6454;43.304;24.344;2022-08-03T12:25:46;4.05;;;1.80;;
12780;SDS011;6454;43.304;24.344;2022-08-03T12:28:14;2.38;;;1.70;;
12780;SDS011;6454;43.304;24.344;2022-08-03T12:30:43;2.38;;;1.90;;
12780;SDS011;6454;43.304;24.344;2022-08-03T12:33:16;2.05;;;1.75;;
12780;SDS011;6454;43.304;24.344;2022-08-03T12:35:50;3.45;;;1.80;;
12780;SDS011;6454;43.304;24.344;2022-08-03T12:38:29;1.88;;;1.70;;
12780;SDS011;6454;43.304;24.344;2022-08-03T12:41:01;1.80;;;1.70;;
12780;SDS011;6454;43.304;24.344;2022-08-03T12:43:30;2.00;;;1.80;;
12780;SDS011;6454;43.304;24.344;2022-08-03T12:46:06;2.15;;;1.73;;
12780;SDS011;6454;43.304;24.344;2022-08-03T12:48:34;3.22;;;1.90;;
12780;SDS011;6454;43.304;24.344;2022-08-03T12:51:09;2.10;;;1.70;;
12780;SDS011;6454;43.304;24.344;2022-08-03T12:53:36;2.63;;;1.77;;
12780;SDS011;6454;43.304;24.344;2022-08-03T12:56:06;2.65;;;1.63;;
12780;SDS011;6454;43.304;24.344;2022-08-03T12:58:34;2.92;;;1.63;;
12780;SDS011;6454;43.304;24.344;2022-08-03T13:01:02;1.67;;;1.58;;
12780;SDS011;6454;43.304;24.344;2022-08-03T13:03:37;3.63;;;2.20;;
12780;SDS011;6454;43.304;24.344;2022-08-03T13:06:12;2.45;;;1.75;;
12780;SDS011;6454;43.304;24.344;2022-08-03T13:08:40;2.63;;;1.63;;
12780;SDS011;6454;43.304;24.344;2022-08-03T13:11:20;1.75;;;1.65;;
12780;SDS011;6454;43.304;24.344;2022-08-03T13:13:49;2.42;;;1.60;;
12780;SDS011;6454;43.304;24.344;2022-08-03T13:16:16;2.83;;;1.88;;
12780;SDS011;6454;43.304;24.344;2022-08-03T13:18:43;1.95;;;1.83;;
12780;SDS011;6454;43.304;24.344;2022-08-03T13:21:13;3.67;;;1.60;;
12780;SDS011;6454;43.304;24.344;2022-08-03T13:23:40;1.92;;;1.77;;
12780;SDS011;6454;43.304;24.344;2022-08-03T13:26:08;1.90;;;1.80;;
12780;SDS011;6454;43.304;24.344;2022-08-03T13:28:35;1.70;;;1.60;;
12780;SDS011;6454;43.304;24.344;2022-08-03T13:31:02;2.10;;;1.90;;
12780;SDS011;6454;43.304;24.344;2022-08-03T13:33:30;1.80;;;1.70;;
12780;SDS011;6454;43.304;24.344;2022-08-03T13:35:57;2.03;;;1.83;;
12780;SDS011;6454;43.304;24.344;2022-08-03T13:38:25;2.40;;;1.83;;
12780;SDS011;6454;43.304;24.344;2022-08-03T13:40:52;3.03;;;2.00;;
12780;SDS011;6454;43.304;24.344;2022-08-03T13:43:19;1.70;;;1.42;;
12780;SDS011;6454;43.304;24.344;2022-08-03T13:45:46;2.60;;;2.00;;
12780;SDS011;6454;43.304;24.344;2022-08-03T13:48:13;2.63;;;1.80;;
12780;SDS011;6454;43.304;24.344;2022-08-03T13:50:40;1.85;;;1.75;;
12780;SDS011;6454;43.304;24.344;2022-08-03T13:53:07;2.63;;;1.80;;
12780;SDS011;6454;43.304;24.344;2022-08-03T13:55:35;3.08;;;1.77;;
12780;SDS011;6454;43.304;24.344;2022-08-03T13:58:02;1.98;;;1.80;;
12780;SDS011;6454;43.304;24.344;2022-08-03T14:00:32;1.73;;;1.63;;
12780;SDS011;6454;43.304;24.344;2022-08-03T14:03:00;1.90;;;1.67;;
12780;SDS011;6454;43.304;24.344;2022-08-03T14:05:27;1.80;;;1.70;;
12780;SDS011;6454;43.304;24.344;2022-08-03T14:07:55;2.13;;;1.58;;
12780;SDS011;6454;43.304;24.344;2022-08-03T14:10:22;2.72;;;1.80;;
12780;SDS011;6454;43.304;24.344;2022-08-03T14:12:51;1.55;;;1.45;;
12780;SDS011;6454;43.304;24.344;2022-08-03T14:15:17;1.88;;;1.60;;
12780;SDS011;6454;43.304;24.344;2022-08-03T14:17:44;1.65;;;1.55;;
12780;SDS011;6454;43.304;24.344;2022-08-03T14:20:11;1.98;;;1.77;;
12780;SDS011;6454;43.304;24.344;2022-08-03T14:22:40;1.85;;;1.75;;
12780;SDS011;6454;43.304;24.344;2022-08-03T14:25:06;1.90;;;1.70;;
12780;SDS011;6454;43.304;24.344;2022-08-03T14:27:33;2.20;;;1.70;;
12780;SDS011;6454;43.304;24.344;2022-08-03T14:30:02;1.67;;;1.58;;
12780;SDS011;6454;43.304;24.344;2022-08-03T14:32:30;2.22;;;1.55;;
12780;SDS011;6454;43.304;24.344;2022-08-03T14:34:57;1.60;;;1.50;;
12780;SDS011;6454;43.304;24.344;2022-08-03T14:37:24;1.85;;;1.63;;
12780;SDS011;6454;43.304;24.344;2022-08-03T14:39:50;6.43;;;1.85;;
12780;SDS011;6454;43.304;24.344;2022-08-03T14:42:17;2.95;;;1.70;;
12780;SDS011;6454;43.304;24.344;2022-08-03T14:44:44;2.08;;;1.90;;
12780;SDS011;6454;43.304;24.344;2022-08-03T14:47:13;3.50;;;1.58;;
12780;SDS011;6454;43.304;24.344;2022-08-03T14:49:39;3.70;;;1.60;;
12780;SDS011;6454;43.304;24.344;2022-08-03T14:52:07;2.75;;;1.70;;
12780;SDS011;6454;43.304;24.344;2022-08-03T14:54:34;1.95;;;1.73;;
12780;SDS011;6454;43.304;24.344;2022-08-03T14:57:01;2.55;;;1.80;;
12780;SDS011;6454;43.304;24.344;2022-08-03T14:59:28;1.90;;;1.63;;
12780;SDS011;6454;43.304;24.344;2022-08-03T15:01:55;1.67;;;1.58;;
12780;SDS011;6454;43.304;24.344;2022-08-03T15:04:23;1.80;;;1.63;;
12780;SDS011;6454;43.304;24.344;2022-08-03T15:06:50;4.68;;;1.70;;
12780;SDS011;6454;43.304;24.344;2022-08-03T15:09:17;2.20;;;1.55;;
12780;SDS011;6454;43.304;24.344;2022-08-03T15:11:44;4.88;;;1.50;;
12780;SDS011;6454;43.304;24.344;2022-08-03T15:14:11;1.65;;;1.55;;
12780;SDS011;6454;43.304;24.344;2022-08-03T15:16:38;1.92;;;1.73;;
12780;SDS011;6454;43.304;24.344;2022-08-03T15:19:05;1.90;;;1.70;;
12780;SDS011;6454;43.304;24.344;2022-08-03T15:21:33;3.40;;;2.08;;
12780;SDS011;6454;43.304;24.344;2022-08-03T15:24:00;2.78;;;2.30;;
12780;SDS011;6454;43.304;24.344;2022-08-03T15:26:27;2.75;;;2.10;;
12780;SDS011;6454;43.304;24.344;2022-08-03T15:28:54;3.33;;;1.80;;
12780;SDS011;6454;43.304;24.344;2022-08-03T15:31:21;5.03;;;2.03;;
12780;SDS011;6454;43.304;24.344;2022-08-03T15:33:48;3.17;;;1.83;;